createdAt,value
2018-02-13T00:01:50.181Z,62.51
2018-02-13T00:04:18.101Z,61.98
2018-02-13T00:06:46.046Z,60.31
2018-02-13T00:09:14.042Z,59.30
2018-02-13T00:11:42.021Z,60.52
2018-02-13T00:14:09.930Z,60.36
2018-02-13T00:16:37.859Z,59.52
2018-02-13T00:19:05.838Z,59.80
2018-02-13T00:21:34.032Z,59.59
2018-02-13T00:24:02.046Z,58.69
2018-02-13T00:26:30.019Z,58.74
2018-02-13T00:28:57.930Z,58.89
2018-02-13T00:31:25.958Z,58.64
2018-02-13T00:33:53.887Z,59.38
2018-02-13T00:36:21.786Z,59.85
2018-02-13T00:38:49.753Z,59.86
2018-02-13T00:41:17.726Z,59.36
2018-02-13T00:43:45.703Z,60.74
2018-02-13T00:46:13.648Z,62.37
2018-02-13T00:48:41.662Z,62.45
2018-02-13T00:51:10.071Z,62.62
2018-02-13T00:53:38.046Z,65.44
2018-02-13T00:56:06.021Z,66.70
2018-02-13T00:58:33.994Z,67.13
2018-02-13T01:01:02.026Z,68.04
2018-02-13T01:03:30.009Z,67.49
2018-02-13T01:05:58.006Z,67.48
2018-02-13T01:08:25.953Z,67.71
2018-02-13T01:10:53.991Z,65.62
2018-02-13T01:13:21.885Z,64.27
2018-02-13T01:15:49.951Z,64.99
2018-02-13T01:18:17.866Z,67.36
2018-02-13T01:20:45.927Z,66.94
2018-02-13T01:23:13.962Z,64.14
2018-02-13T01:25:42.071Z,63.32
2018-02-13T01:28:10.026Z,63.29
2018-02-13T01:30:37.993Z,63.30
2018-02-13T01:33:05.970Z,63.65
2018-02-13T01:35:33.806Z,62.64
2018-02-13T01:38:01.771Z,61.62
2018-02-13T01:40:29.719Z,61.44
2018-02-13T01:42:57.770Z,61.43
2018-02-13T01:45:25.754Z,63.42
2018-02-13T01:47:53.766Z,63.73
2018-02-13T01:50:26.702Z,62.70
2018-02-13T01:52:55.089Z,61.10
2018-02-13T01:55:23.071Z,61.88
2018-02-13T01:57:51.030Z,60.97
2018-02-13T02:00:18.922Z,61.33
2018-02-13T02:02:46.801Z,61.88
2018-02-13T02:05:14.742Z,62.69
2018-02-13T02:07:42.694Z,63.67
2018-02-13T02:10:10.610Z,63.47
2018-02-13T02:12:38.602Z,65.11
2018-02-13T02:15:06.518Z,63.93
2018-02-13T02:17:34.503Z,64.08
2018-02-13T02:20:02.497Z,63.17
2018-02-13T02:22:30.511Z,63.46
2018-02-13T02:24:58.517Z,64.34
2018-02-13T02:27:26.705Z,62.49
2018-02-13T02:29:54.658Z,61.31
2018-02-13T02:32:22.635Z,60.46
2018-02-13T02:34:50.613Z,59.84
2018-02-13T02:37:18.593Z,60.64
2018-02-13T02:39:46.584Z,60.94
2018-02-13T02:42:14.565Z,61.16
2018-02-13T02:44:42.487Z,60.46
2018-02-13T02:47:10.457Z,60.05
2018-02-13T02:49:38.419Z,59.29
2018-02-13T02:52:06.367Z,61.05
2018-02-13T02:54:34.818Z,58.97
2018-02-13T02:57:02.832Z,59.78
2018-02-13T02:59:30.786Z,59.60
2018-02-13T03:01:58.770Z,60.79
2018-02-13T03:04:26.651Z,60.39
2018-02-13T03:06:54.599Z,59.86
2018-02-13T03:09:22.667Z,60.20
2018-02-13T03:11:50.590Z,60.04
2018-02-13T03:14:18.686Z,60.31
2018-02-13T03:16:46.735Z,62.63
2018-02-13T03:19:14.562Z,65.84
2018-02-13T03:21:42.545Z,66.65
2018-02-13T03:24:10.493Z,68.09
2018-02-13T03:26:38.454Z,67.69
2018-02-13T03:29:06.431Z,67.19
2018-02-13T03:31:34.386Z,67.56
2018-02-13T03:34:02.366Z,68.97
2018-02-13T03:36:30.293Z,68.96
2018-02-13T03:38:58.265Z,67.15
2018-02-13T03:41:26.205Z,67.17
2018-02-13T03:43:54.206Z,65.81
2018-02-13T03:46:22.221Z,62.63
2018-02-13T03:48:50.167Z,61.21
2018-02-13T03:51:18.179Z,60.96
2018-02-13T03:53:46.156Z,62.17
2018-02-13T03:56:14.447Z,61.44
2018-02-13T03:58:42.409Z,62.68
2018-02-13T04:01:10.378Z,64.53
2018-02-13T04:03:38.327Z,62.80
2018-02-13T04:06:06.299Z,61.56
2018-02-13T04:08:34.298Z,60.62
2018-02-13T04:11:02.329Z,61.72
2018-02-13T04:13:30.337Z,62.71
2018-02-13T04:15:58.354Z,63.02
2018-02-13T04:18:26.366Z,64.08
2018-02-13T04:20:54.348Z,63.50
2018-02-13T04:23:22.314Z,62.31
2018-02-13T04:25:50.290Z,60.54
2018-02-13T04:28:18.319Z,60.10
2018-02-13T04:30:46.341Z,60.37
2018-02-13T04:33:14.330Z,60.49
2018-02-13T04:35:42.310Z,61.26
2018-02-13T04:38:10.357Z,61.91
2018-02-13T04:40:38.313Z,62.03
2018-02-13T04:43:06.263Z,62.75
2018-02-13T04:45:34.302Z,63.26
2018-02-13T04:48:02.305Z,62.37
2018-02-13T04:50:31.385Z,61.94
2018-02-13T04:52:59.369Z,61.55
2018-02-13T04:55:27.353Z,62.64
2018-02-13T04:57:55.593Z,61.86
2018-02-13T05:00:23.574Z,64.19
2018-02-13T05:02:51.543Z,62.94
2018-02-13T05:05:19.476Z,62.32
2018-02-13T05:07:47.392Z,63.08
2018-02-13T05:10:15.350Z,62.66
2018-02-13T05:12:43.301Z,61.91
2018-02-13T05:15:11.291Z,61.85
2018-02-13T05:17:39.269Z,62.25
2018-02-13T05:20:07.221Z,62.27
2018-02-13T05:22:35.210Z,61.73
2018-02-13T05:25:03.198Z,61.34
2018-02-13T05:27:31.177Z,63.48
2018-02-13T05:29:59.151Z,63.49
2018-02-13T05:32:27.200Z,63.61
2018-02-13T05:34:55.173Z,62.40
2018-02-13T05:37:23.218Z,62.33
2018-02-13T05:39:51.179Z,62.29
2018-02-13T05:42:19.105Z,64.04
2018-02-13T05:44:47.138Z,64.00
2018-02-13T05:47:15.162Z,65.06
2018-02-13T05:49:43.094Z,66.57
2018-02-13T05:52:11.139Z,65.41
2018-02-13T05:54:39.255Z,63.52
2018-02-13T05:57:07.173Z,64.21
2018-02-13T05:59:35.910Z,63.71
2018-02-13T06:02:03.879Z,65.98
2018-02-13T06:04:31.823Z,65.05
2018-02-13T06:06:59.819Z,63.10
2018-02-13T06:09:27.821Z,63.91
2018-02-13T06:11:55.750Z,64.57
2018-02-13T06:14:23.728Z,64.38
2018-02-13T06:16:51.759Z,64.20
2018-02-13T06:19:19.679Z,64.65
2018-02-13T06:21:47.646Z,64.39
2018-02-13T06:24:15.609Z,63.57
2018-02-13T06:26:43.559Z,67.74
2018-02-13T06:29:11.736Z,64.44
2018-02-13T06:31:40.031Z,62.35
2018-02-13T06:34:08.510Z,59.64
2018-02-13T06:36:36.989Z,62.99
2018-02-13T06:39:05.964Z,64.19
2018-02-13T06:41:34.262Z,63.22
2018-02-13T06:44:02.163Z,63.36
2018-02-13T06:46:30.810Z,65.99
2018-02-13T06:48:58.690Z,64.36
2018-02-13T06:51:26.615Z,64.21
2018-02-13T06:53:54.664Z,65.19
2018-02-13T06:56:22.657Z,62.99
2018-02-13T06:58:50.639Z,63.95
2018-02-13T07:01:19.134Z,63.09
2018-02-13T07:03:47.131Z,62.40
2018-02-13T07:06:15.047Z,62.18
2018-02-13T07:08:42.987Z,62.32
2018-02-13T07:11:10.957Z,60.65
2018-02-13T07:13:38.906Z,59.67
2018-02-13T07:16:06.886Z,60.31
2018-02-13T07:18:34.843Z,61.92
2018-02-13T07:21:02.826Z,63.01
2018-02-13T07:23:30.838Z,63.59
2018-02-13T07:25:58.794Z,64.74
2018-02-13T07:28:26.898Z,64.94
2018-02-13T07:30:54.766Z,64.51
2018-02-13T07:33:22.742Z,63.42
2018-02-13T07:35:50.845Z,64.64
2018-02-13T07:38:18.847Z,64.34
2018-02-13T07:40:46.764Z,62.12
2018-02-13T07:43:14.751Z,63.56
2018-02-13T07:45:42.669Z,63.68
2018-02-13T07:48:10.666Z,64.51
2018-02-13T07:50:38.646Z,63.79
2018-02-13T07:53:06.651Z,65.41
2018-02-13T07:55:34.610Z,64.13
2018-02-13T07:58:02.561Z,63.35
2018-02-13T08:00:30.602Z,63.15
2018-02-13T08:02:58.867Z,62.40
2018-02-13T08:05:26.842Z,64.25
2018-02-13T08:07:54.820Z,65.00
2018-02-13T08:10:22.925Z,66.44
2018-02-13T08:12:50.965Z,65.92
2018-02-13T08:15:19.318Z,65.58
2018-02-13T08:17:47.259Z,63.17
2018-02-13T08:20:15.205Z,63.54
2018-02-13T08:22:43.169Z,62.64
2018-02-13T08:25:11.126Z,64.18
2018-02-13T08:27:39.077Z,63.42
2018-02-13T08:30:07.082Z,64.99
2018-02-13T08:32:35.053Z,66.57
2018-02-13T08:35:02.985Z,65.37
2018-02-13T08:37:31.112Z,64.35
2018-02-13T08:39:59.095Z,63.99
2018-02-13T08:42:27.078Z,64.21
2018-02-13T08:44:55.113Z,64.79
2018-02-13T08:47:23.071Z,65.06
2018-02-13T08:49:51.150Z,63.86
2018-02-13T08:52:19.130Z,64.08
2018-02-13T08:54:47.137Z,62.26
2018-02-13T08:57:15.117Z,60.25
2018-02-13T08:59:43.156Z,59.13
2018-02-13T09:02:11.181Z,61.44
2018-02-13T09:04:39.426Z,61.14
2018-02-13T09:07:07.457Z,60.50
2018-02-13T09:09:35.541Z,60.11
2018-02-13T09:12:03.533Z,59.12
2018-02-13T09:14:31.543Z,59.76
2018-02-13T09:16:59.511Z,58.90
2018-02-13T09:19:27.522Z,59.56
2018-02-13T09:21:55.504Z,59.53
2018-02-13T09:24:23.417Z,60.38
2018-02-13T09:26:51.407Z,59.66
2018-02-13T09:29:19.422Z,58.87
2018-02-13T09:31:47.409Z,57.92
2018-02-13T09:34:15.398Z,56.53
2018-02-13T09:36:43.389Z,56.45
2018-02-13T09:39:11.655Z,56.61
2018-02-13T09:41:39.654Z,54.31
2018-02-13T09:44:07.614Z,54.50
2018-02-13T09:46:35.629Z,54.02
2018-02-13T09:49:03.666Z,52.86
2018-02-13T09:51:31.656Z,52.74
2018-02-13T09:53:59.607Z,53.00
2018-02-13T09:56:27.626Z,51.62
2018-02-13T09:58:55.654Z,54.44
2018-02-13T10:01:23.615Z,56.37
2018-02-13T10:03:51.693Z,55.63
2018-02-13T10:06:20.050Z,54.98
2018-02-13T10:08:48.078Z,54.57
2018-02-13T10:11:16.089Z,55.85
2018-02-13T10:13:44.057Z,55.84
2018-02-13T10:16:12.132Z,53.96
2018-02-13T10:18:40.139Z,53.30
2018-02-13T10:21:08.227Z,51.87
2018-02-13T10:23:36.256Z,52.85
2018-02-13T10:26:04.234Z,54.02
2018-02-13T10:28:32.253Z,54.43
2018-02-13T10:31:00.279Z,54.20
2018-02-13T10:33:28.348Z,55.88
2018-02-13T10:35:56.278Z,54.89
2018-02-13T10:38:24.270Z,55.62
2018-02-13T10:40:52.300Z,55.61
2018-02-13T10:43:20.254Z,54.25
2018-02-13T10:45:48.219Z,53.71
2018-02-13T10:48:16.121Z,52.11
2018-02-13T10:50:44.098Z,52.26
2018-02-13T10:53:12.093Z,52.11
2018-02-13T10:55:40.063Z,53.04
2018-02-13T10:58:08.042Z,53.09
2018-02-13T11:00:41.583Z,53.09
2018-02-13T11:03:09.584Z,52.31
2018-02-13T11:05:37.594Z,52.19
2018-02-13T11:08:05.914Z,52.88
2018-02-13T11:10:33.946Z,53.62
2018-02-13T11:13:01.956Z,52.77
2018-02-13T11:15:30.035Z,54.55
2018-02-13T11:17:58.074Z,54.25
2018-02-13T11:20:26.114Z,53.18
2018-02-13T11:22:54.094Z,52.59
2018-02-13T11:25:22.082Z,52.17
2018-02-13T11:27:50.069Z,54.12
2018-02-13T11:30:18.043Z,52.71
2018-02-13T11:32:46.044Z,49.81
2018-02-13T11:35:13.962Z,49.50
2018-02-13T11:37:41.974Z,49.71
2018-02-13T11:40:09.922Z,49.66
2018-02-13T11:42:38.061Z,47.14
2018-02-13T11:45:06.051Z,47.58
2018-02-13T11:47:34.037Z,47.63
2018-02-13T11:50:01.999Z,46.25
2018-02-13T11:52:29.999Z,46.38
2018-02-13T11:54:57.980Z,47.57
2018-02-13T11:57:25.907Z,48.74
2018-02-13T11:59:53.899Z,52.38
2018-02-13T12:02:21.903Z,52.42
2018-02-13T12:04:49.927Z,51.96
2018-02-13T12:07:17.967Z,52.33
2018-02-13T12:09:46.148Z,50.64
2018-02-13T12:12:14.238Z,50.75
2018-02-13T12:14:42.222Z,50.33
2018-02-13T12:17:10.221Z,52.14
2018-02-13T12:19:38.144Z,53.68
2018-02-13T12:22:06.125Z,54.14
2018-02-13T12:24:34.177Z,53.70
2018-02-13T12:27:02.041Z,53.16
2018-02-13T12:29:30.025Z,53.75
2018-02-13T12:31:58.138Z,53.12
2018-02-13T12:34:26.175Z,53.52
2018-02-13T12:36:54.181Z,55.55
2018-02-13T12:39:22.162Z,55.34
2018-02-13T12:41:50.190Z,56.32
2018-02-13T12:44:18.538Z,54.86
2018-02-13T12:46:46.513Z,53.89
2018-02-13T12:49:14.600Z,53.10
2018-02-13T12:51:42.574Z,54.99
2018-02-13T12:54:10.599Z,55.71
2018-02-13T12:56:38.609Z,55.71
2018-02-13T12:59:06.697Z,57.04
2018-02-13T13:01:34.654Z,57.22
2018-02-13T13:04:03.635Z,57.47
2018-02-13T13:06:31.659Z,58.63
2018-02-13T13:08:59.709Z,59.18
2018-02-13T13:11:28.125Z,61.48
2018-02-13T13:13:56.115Z,61.25
2018-02-13T13:16:24.068Z,59.29
2018-02-13T13:18:51.958Z,57.86
2018-02-13T13:21:19.955Z,59.73
2018-02-13T13:23:47.983Z,59.38
2018-02-13T13:26:15.984Z,58.11
2018-02-13T13:28:43.995Z,60.17
2018-02-13T13:31:12.010Z,58.26
2018-02-13T13:33:40.003Z,60.59
2018-02-13T13:36:08.012Z,62.02
2018-02-13T13:38:35.996Z,59.94
2018-02-13T13:41:03.991Z,60.40
2018-02-13T13:43:31.994Z,61.66
2018-02-13T13:46:00.265Z,63.41
2018-02-13T13:48:28.687Z,62.80
2018-02-13T13:50:56.609Z,62.60
2018-02-13T13:53:24.604Z,61.78
2018-02-13T13:55:52.602Z,61.38
2018-02-13T13:58:20.575Z,63.66
2018-02-13T14:00:48.534Z,61.61
2018-02-13T14:03:16.551Z,61.76
2018-02-13T14:05:44.542Z,61.33
2018-02-13T14:08:12.512Z,60.31
2018-02-13T14:10:40.477Z,61.57
2018-02-13T14:13:08.670Z,61.92
2018-02-13T14:15:36.654Z,63.52
2018-02-13T14:18:04.657Z,63.06
2018-02-13T14:20:32.638Z,64.07
2018-02-13T14:23:00.641Z,65.60
2018-02-13T14:25:28.608Z,67.26
2018-02-13T14:27:56.593Z,66.56
2018-02-13T14:30:24.588Z,67.28
2018-02-13T14:32:52.617Z,68.58
2018-02-13T14:35:20.605Z,68.99
2018-02-13T14:37:48.626Z,68.37
2018-02-13T14:40:16.610Z,67.43
2018-02-13T14:42:44.670Z,67.17
2018-02-13T14:45:12.663Z,67.44
2018-02-13T14:47:40.613Z,68.55
2018-02-13T14:50:08.570Z,67.85
2018-02-13T14:52:36.506Z,69.93
2018-02-13T14:55:04.449Z,68.75
2018-02-13T14:57:32.429Z,68.12
2018-02-13T15:00:00.480Z,68.37
2018-02-13T15:02:28.466Z,69.34
2018-02-13T15:04:56.450Z,68.79
2018-02-13T15:07:24.445Z,68.83
2018-02-13T15:09:52.426Z,69.06
2018-02-13T15:12:20.499Z,67.69
2018-02-13T15:14:48.897Z,69.45
2018-02-13T15:17:22.051Z,69.36
2018-02-13T15:19:52.067Z,67.71
2018-02-13T15:22:20.007Z,69.16
2018-02-13T15:24:48.016Z,69.56
2018-02-13T15:27:16.029Z,69.67
2018-02-13T15:29:44.165Z,69.17
2018-02-13T15:32:12.194Z,69.48
2018-02-13T15:34:40.151Z,68.90
2018-02-13T15:37:08.110Z,69.93
2018-02-13T15:39:36.255Z,69.78
2018-02-13T15:42:04.194Z,70.39
2018-02-13T15:44:32.173Z,69.11
2018-02-13T15:47:05.065Z,68.31
2018-02-13T15:49:33.462Z,67.40
2018-02-13T15:52:01.821Z,68.92
2018-02-13T15:54:29.794Z,68.40
2018-02-13T15:56:57.861Z,69.01
2018-02-13T15:59:25.771Z,69.97
2018-02-13T16:01:53.768Z,69.79
2018-02-13T16:04:21.754Z,69.85
2018-02-13T16:06:49.706Z,71.03
2018-02-13T16:09:17.705Z,71.04
2018-02-13T16:11:45.690Z,70.96
2018-02-13T16:14:13.677Z,71.13
2018-02-13T16:16:41.936Z,71.07
2018-02-13T16:19:09.803Z,71.24
2018-02-13T16:21:37.754Z,71.61
2018-02-13T16:24:05.738Z,71.80
2018-02-13T16:26:33.734Z,71.38
2018-02-13T16:29:01.826Z,72.11
2018-02-13T16:31:29.710Z,73.05
2018-02-13T16:33:57.962Z,72.48
2018-02-13T16:36:25.910Z,72.18
2018-02-13T16:38:53.937Z,71.82
2018-02-13T16:41:21.870Z,71.70
2018-02-13T16:43:49.856Z,71.56
2018-02-13T16:46:17.883Z,71.51
2018-02-13T16:48:45.883Z,71.99
2018-02-13T16:51:13.815Z,72.32
2018-02-13T16:53:41.801Z,72.06
2018-02-13T16:56:09.818Z,72.65
2018-02-13T16:58:37.819Z,72.63
2018-02-13T17:01:05.832Z,72.84
2018-02-13T17:03:33.774Z,72.86
2018-02-13T17:06:01.770Z,73.12
2018-02-13T17:08:29.750Z,71.70
2018-02-13T17:10:57.781Z,72.89
2018-02-13T17:13:25.720Z,72.42
2018-02-13T17:15:53.765Z,73.51
2018-02-13T17:18:22.233Z,73.03
2018-02-13T17:20:50.187Z,72.52
2018-02-13T17:23:18.263Z,73.16
2018-02-13T17:25:46.247Z,73.27
2018-02-13T17:28:15.266Z,72.38
2018-02-13T17:30:43.202Z,72.50
2018-02-13T17:33:11.162Z,73.17
2018-02-13T17:35:39.166Z,73.07
2018-02-13T17:38:07.203Z,73.01
2018-02-13T17:40:35.195Z,73.16
2018-02-13T17:43:03.847Z,72.39
2018-02-13T17:45:31.759Z,71.37
2018-02-13T17:48:00.160Z,70.77
2018-02-13T17:50:28.092Z,71.32
2018-02-13T17:52:56.058Z,72.80
2018-02-13T17:55:24.003Z,72.20
2018-02-13T17:57:51.974Z,71.41
2018-02-13T18:00:19.921Z,72.46
2018-02-13T18:02:47.937Z,72.23
2018-02-13T18:05:15.953Z,72.72
2018-02-13T18:07:43.958Z,73.64
2018-02-13T18:10:11.962Z,73.93
2018-02-13T18:12:40.014Z,72.87
2018-02-13T18:15:07.998Z,73.43
2018-02-13T18:17:35.988Z,72.69
2018-02-13T18:20:04.376Z,72.42
2018-02-13T18:22:32.302Z,73.44
2018-02-13T18:25:00.338Z,71.71
2018-02-13T18:27:28.323Z,72.42
2018-02-13T18:29:56.338Z,73.46
2018-02-13T18:32:24.411Z,73.97
2018-02-13T18:34:52.401Z,73.56
2018-02-13T18:37:20.517Z,73.20
2018-02-13T18:39:48.542Z,70.78
2018-02-13T18:42:16.445Z,70.10
2018-02-13T18:44:44.425Z,70.39
2018-02-13T18:47:12.398Z,69.52
2018-02-13T18:49:40.359Z,68.97
2018-02-13T18:54:36.141Z,71.79
2018-02-13T18:57:04.137Z,71.48
2018-02-13T18:59:32.094Z,71.92
2018-02-13T19:02:00.113Z,72.05
2018-02-13T19:04:28.145Z,72.21
2018-02-13T19:06:56.102Z,71.47
2018-02-13T19:09:24.016Z,73.32
2018-02-13T19:11:51.982Z,72.17
2018-02-13T19:14:20.021Z,71.76
2018-02-13T19:19:15.943Z,73.17
2018-02-13T19:21:44.895Z,73.24
2018-02-13T19:24:12.909Z,72.95
2018-02-13T19:26:40.907Z,70.88
2018-02-13T19:29:08.832Z,70.28
2018-02-13T19:31:36.787Z,69.42
2018-02-13T19:34:04.694Z,69.13
2018-02-13T19:36:32.706Z,70.32
2018-02-13T19:39:00.662Z,69.59
2018-02-13T19:41:28.667Z,68.70
2018-02-13T19:43:56.682Z,68.10
2018-02-13T19:46:24.703Z,69.27
2018-02-13T19:48:52.723Z,69.78
2018-02-13T19:51:20.690Z,70.19
2018-02-13T19:53:48.719Z,70.89
2018-02-13T19:56:16.679Z,70.51
2018-02-13T19:58:44.715Z,69.73
2018-02-13T20:01:12.707Z,68.89
2018-02-13T20:03:40.709Z,69.57
2018-02-13T20:06:08.662Z,70.62
2018-02-13T20:08:36.602Z,70.04
2018-02-13T20:11:04.506Z,71.03
2018-02-13T20:13:32.426Z,70.90
2018-02-13T20:16:00.510Z,70.54
2018-02-13T20:18:28.470Z,68.68
2018-02-13T20:20:56.446Z,68.81
2018-02-13T20:23:24.839Z,67.91
2018-02-13T20:25:52.842Z,68.11
2018-02-13T20:28:20.729Z,67.36
2018-02-13T20:30:48.708Z,67.10
2018-02-13T20:33:16.699Z,66.92
2018-02-13T20:35:44.682Z,66.10
2018-02-13T20:38:12.676Z,66.68
2018-02-13T20:40:41.412Z,66.94
2018-02-13T20:43:09.395Z,68.11
2018-02-13T20:45:37.282Z,68.17
2018-02-13T20:48:05.209Z,67.23
2018-02-13T20:50:33.242Z,66.63
2018-02-13T20:53:01.215Z,66.51
2018-02-13T20:55:29.230Z,65.90
2018-02-13T20:57:58.354Z,65.58
2018-02-13T21:00:27.142Z,65.27
2018-02-13T21:02:55.152Z,66.91
2018-02-13T21:05:23.149Z,65.63
2018-02-13T21:07:51.110Z,66.19
2018-02-13T21:10:19.122Z,65.10
2018-02-13T21:12:47.146Z,65.10
2018-02-13T21:15:15.158Z,66.52
2018-02-13T21:17:43.166Z,67.17
2018-02-13T21:20:11.118Z,68.22
2018-02-13T21:22:39.188Z,68.21
2018-02-13T21:25:07.522Z,68.22
2018-02-13T21:27:35.537Z,68.19
2018-02-13T21:30:03.550Z,66.99
2018-02-13T21:32:31.565Z,66.71
2018-02-13T21:34:59.530Z,68.16
2018-02-13T21:37:27.469Z,66.77
2018-02-13T21:39:55.446Z,67.25
2018-02-13T21:42:23.427Z,67.29
2018-02-13T21:44:51.339Z,65.82
2018-02-13T21:47:19.323Z,65.93
2018-02-13T21:49:47.433Z,67.73
2018-02-13T21:52:15.414Z,67.35
2018-02-13T21:54:43.414Z,67.67
2018-02-13T21:57:11.834Z,67.96
2018-02-13T21:59:40.197Z,66.81
2018-02-13T22:02:08.486Z,67.02
2018-02-13T22:04:37.163Z,66.07
2018-02-13T22:07:05.640Z,66.30
2018-02-13T22:09:33.953Z,66.36
2018-02-13T22:12:02.395Z,66.24
2018-02-13T22:14:30.588Z,65.64
2018-02-13T22:16:59.048Z,65.71
2018-02-13T22:19:27.635Z,65.31
2018-02-13T22:21:56.010Z,65.91
2018-02-13T22:24:24.495Z,66.41
2018-02-13T22:26:53.018Z,66.74
2018-02-13T22:29:21.346Z,66.89
2018-02-13T22:31:49.930Z,67.35
2018-02-13T22:34:18.189Z,67.81
2018-02-13T22:36:46.994Z,68.32
2018-02-13T22:39:15.457Z,67.07
2018-02-13T22:41:43.860Z,66.58
2018-02-13T22:44:12.131Z,66.02
2018-02-13T22:46:40.589Z,65.56
2018-02-13T22:49:09.304Z,67.29
2018-02-13T22:51:37.677Z,67.45
2018-02-13T22:54:06.050Z,68.11
2018-02-13T22:56:34.539Z,66.71
2018-02-13T22:59:03.218Z,67.59
2018-02-13T23:01:31.884Z,65.87
2018-02-13T23:04:00.282Z,65.55
2018-02-13T23:06:29.072Z,66.57
2018-02-13T23:08:57.651Z,65.19
2018-02-13T23:11:26.037Z,65.61
2018-02-13T23:13:54.609Z,65.78
2018-02-13T23:16:23.077Z,65.88
2018-02-13T23:18:51.465Z,65.32
2018-02-13T23:21:20.050Z,65.80
2018-02-13T23:23:48.434Z,66.14
2018-02-13T23:26:16.705Z,69.05
2018-02-13T23:28:45.389Z,69.72
2018-02-13T23:31:13.765Z,67.73
2018-02-13T23:33:42.248Z,71.19
2018-02-13T23:36:10.530Z,71.48
2018-02-13T23:38:38.901Z,70.50
2018-02-13T23:41:07.177Z,68.77
2018-02-13T23:43:35.689Z,68.09
2018-02-13T23:46:04.141Z,67.82
2018-02-13T23:48:32.618Z,68.99
2018-02-13T23:51:00.999Z,70.10
2018-02-13T23:53:29.476Z,71.13
2018-02-13T23:55:57.758Z,69.46
2018-02-13T23:58:26.423Z,68.49
